Proctor, West Virginia
Current Conditions -  °F | °C
As of 6:53 PM on Tuesday 25 Nov 2014 (Local Time) from KHLG Reporting Station
Clear Clear  
Wind Chill: 32°   Ceiling: Unl
Heat Index: 36°   Visibility: 10mi
Dew Point: 25°   Wind: 5mph
Humidity: 64%   Direction: 340°NNW
Pressure: 30.14"   Gusts: NA
Location:  39.71°N, 80.82°W
Report Text: KHLG 252353Z 34004KT 10SM CLR 02/M04 A3014 RMK AO2 SLP216 T00221039 10094 20022 53026
Loading
Personal Weather Stations






























Interactive Weather Map New forecast layout! Learn more

10-Day Weather Forecast

Advertisements
Track Severe Weather on mobile